Terminal Aerodrome Forecast
Issued by NWS Upton, NY

Home | Current Version | Previous Version | Text Only | Print | Product List | Glossary On
Versions: 1 2 3 4 5 6 7 8 9 10 11 12 13 14 15 16 17 18 19 20 21 22 23 24 25 26 27 28 29 30 31 32 33 34 35 36 37
000
FTUS41 KOKX 040700 AAA
TAFEWR
TAF AMD
KEWR 040743Z 0408/0512 24012G18KT P6SM OVC008 WS020/25050KT
     FM041000 25007KT 5SM BR OVC008
      TEMPO 0411/0413 3SM -RA BR
     FM041700 27008KT 5SM -RA BR BKN010 BKN050
     FM050000 28005KT 4SM -RA BR OVC008
     FM050600 33005KT 2SM -SN BR OVC008
     FM051000 34009G15KT 1SM -SN BR OVC008=

USA.gov is the U.S. government's official web portal to all federal, state and local government web resources and services.